Latest Weather Observations for Rockhampton

IDQ60801

Issued at 5:42 pm EST Sunday 15 December 2019 (issued every 10 minutes, with the page automatically refreshed every 10 minutes)

About weather observations | Map of weather stations | Latest weather observations for QLD | Other Formats
Station Details ID: 039083 Name: ROCKHAMPTON AERO Lat: -23.38 Lon: 150.48 Height: 10.4 m
Data from the previous 72 hours. | See also: Recent months at Rockhampton
Date/Time
EST
Temp
°C
App
Temp
°C
Dew
Point
°C
Rel
Hum
%
Delta-T
°C
Wind Press
QNH
hPa
Press
MSL
hPa
Rain since
9am
mm
Dir  Spd
km/h
Gust
km/h
Spd
kts
Gust
kts
15/05:30pm 33.1 33.8 21.6 51 7.8 NNE 20 30 11 16 1006.7 1006.6 0.0
15/05:00pm 33.6 32.9 21.1 48 8.4 NNE 26 35 14 19 1006.6 1006.5 0.0
15/04:30pm 34.6 33.4 20.9 44 9.2 NNE 28 33 15 18 1006.1 1006.0 0.0
15/04:00pm 35.3 34.8 20.0 40 10.2 NE 22 30 12 16 1005.6 1005.5 0.0
15/03:30pm 36.7 35.7 19.6 36 11.4 NNE 24 33 13 18 1005.6 1005.5 0.0
15/03:00pm 37.3 36.1 19.3 35 12.0 NNE 24 33 13 18 1005.9 1005.8 0.0
15/02:30pm 37.0 36.1 18.1 33 12.4 NNE 20 30 11 16 1006.0 1005.9 0.0
15/02:00pm 38.2 37.0 12.7 21 15.6 WNW 11 28 6 15 1006.3 1006.2 0.0
15/01:30pm 37.7 35.7 11.6 21 15.6 WSW 13 20 7 11 1006.9 1006.8 0.0
15/01:00pm 36.3 35.4 12.5 24 14.4 W 9 13 5 7 1007.3 1007.2 0.0
15/12:30pm 36.2 35.1 13.0 24 14.1 SSW 11 19 6 10 1007.8 1007.7 0.0
15/12:00pm 35.5 34.4 14.2 28 13.2 WNW 13 20 7 11 1008.3 1008.2 0.0
15/11:30am 34.2 34.0 15.6 32 11.7 N 11 20 6 11 1008.8 1008.7 0.0
15/11:00am 34.1 33.5 14.6 31 12.1 N 11 19 6 10 1009.4 1009.3 0.0
15/10:30am 33.5 33.0 15.9 34 11.0 NW 13 19 7 10 1009.6 1009.5 0.0
15/10:00am 33.2 32.4 16.1 35 10.8 NNW 15 22 8 12 1009.9 1009.8 0.0
15/09:30am 32.2 30.9 14.8 35 10.7 NNW 15 20 8 11 1010.1 1010.0 0.0
15/09:00am 30.9 31.4 16.5 42 9.0 N 9 17 5 9 1010.3 1010.2 0.0
15/08:30am 30.2 31.3 18.9 50 7.3 NNE 11 17 6 9 1010.4 1010.3 0.0
15/08:00am 29.2 30.7 18.9 53 6.7 N 9 13 5 7 1010.4 1010.3 0.0
15/07:30am 28.1 29.5 20.4 63 5.1 NNW 13 17 7 9 1010.3 1010.2 0.0
15/07:00am 26.9 29.1 20.3 67 4.3 NNW 9 13 5 7 1010.2 1010.1 0.0
15/06:30am 26.3 29.8 20.4 70 3.9 E 2 7 1 4 1010.1 1010.0 0.0
15/06:00am 25.3 29.4 20.8 76 3.0 CALM 0 0 0 0 1009.8 1009.7 0.0
15/05:30am 24.1 28.0 20.4 80 2.4 CALM 0 0 0 0 1009.3 1009.2 0.0
15/05:00am 24.4 28.5 20.7 80 2.4 CALM 0 0 0 0 1008.9 1008.8 0.0
15/04:30am 24.3 28.2 20.4 79 2.5 CALM 0 0 0 0 1008.5 1008.4 0.0
15/04:00am 24.6 28.7 20.7 79 2.6 CALM 0 2 0 1 1008.4 1008.3 0.0
15/03:30am 24.5 27.6 20.2 77 2.8 W 4 7 2 4 1008.3 1008.2 0.0
15/03:00am 25.3 28.6 20.8 76 3.0 SE 4 9 2 5 1008.0 1007.9 0.0
15/02:30am 25.2 27.5 20.7 76 2.9 ESE 9 15 5 8 1007.8 1007.7 0.0
15/02:00am 25.7 28.1 20.0 71 3.7 ESE 7 11 4 6 1008.0 1007.9 0.0
15/01:30am 26.2 28.7 21.0 73 3.4 ENE 9 13 5 7 1008.2 1008.1 0.0
15/01:00am 26.4 28.4 20.0 68 4.2 ENE 9 13 5 7 1008.1 1008.0 0.0
15/12:30am 26.5 28.7 19.6 66 4.5 NE 7 9 4 5 1008.6 1008.5 0.0
15/12:00am 26.7 28.9 20.3 68 4.2 NE 9 15 5 8 1009.2 1009.1 0.0
 
Date/Time
EST
Temp
°C
App
Temp
°C
Dew
Point
°C
Rel
Hum
%
Delta-T
°C
Wind Press
QNH
hPa
Press
MSL
hPa
Rain since
9am
mm
Dir  Spd
km/h
Gust
km/h
Spd
kts
Gust
kts
14/11:30pm 26.6 27.4 20.7 70 3.9 NE 17 24 9 13 1009.2 1009.1 0.0
14/11:00pm 26.8 27.6 20.6 69 4.1 NNE 17 24 9 13 1009.7 1009.6 0.0
14/10:30pm 27.0 27.2 20.6 68 4.2 N 20 28 11 15 1009.7 1009.6 0.0
14/10:00pm 27.3 27.6 20.4 66 4.5 N 19 28 10 15 1009.4 1009.3 0.0
14/09:30pm 27.7 28.8 20.5 65 4.7 N 15 20 8 11 1009.5 1009.4 0.0
14/09:00pm 27.7 28.5 19.0 59 5.6 N 13 17 7 9 1009.2 1009.1 0.0
14/08:30pm 28.0 27.8 18.4 56 6.1 N 17 24 9 13 1008.8 1008.7 0.0
14/08:00pm 28.8 28.6 18.6 54 6.6 N 17 28 9 15 1007.8 1007.7 0.0
14/07:30pm 29.2 29.5 19.5 56 6.3 NNE 17 24 9 13 1007.3 1007.2 0.0
14/07:00pm 29.9 30.2 19.6 54 6.8 NNE 17 20 9 11 1006.7 1006.6 0.0
14/06:30pm 30.7 30.1 19.7 52 7.2 NNE 22 28 12 15 1006.3 1006.2 0.0
14/06:00pm 31.6 31.1 19.9 50 7.7 NNE 22 32 12 17 1005.9 1005.8 0.0
14/05:30pm 32.3 32.2 19.9 48 8.2 NNE 20 26 11 14 1006.1 1006.0 0.0
14/05:00pm 32.4 31.3 20.3 48 8.1 NNE 26 37 14 20 1005.9 1005.8 0.0
14/04:30pm 33.8 32.7 19.5 43 9.4 NE 24 32 13 17 1005.2 1005.1 0.0
14/04:00pm 33.0 33.2 20.5 47 8.4 NE 20 28 11 15 1005.6 1005.5 0.0
14/03:30pm 35.2 35.3 19.1 38 10.6 ENE 17 26 9 14 1005.6 1005.5 0.0
14/03:00pm 36.8 36.0 18.4 34 12.1 NE 20 33 11 18 1005.6 1005.5 0.0
14/02:30pm 37.6 37.1 18.6 33 12.5 N 19 28 10 15 1005.8 1005.7 0.0
14/02:00pm 37.2 35.2 13.9 25 14.4 NNW 17 26 9 14 1006.4 1006.3 0.0
14/01:30pm 37.9 38.0 14.5 25 14.6 E 7 20 4 11 1006.9 1006.8 0.0
14/01:00pm 36.9 36.0 13.6 24 14.3 NE 11 19 6 10 1007.5 1007.4 0.0
14/12:30pm 35.5 34.9 14.7 28 12.9 NW 11 20 6 11 1008.0 1007.9 0.0
14/12:00pm 35.4 36.0 16.7 33 12.0 N 9 17 5 9 1008.5 1008.4 0.0
14/11:30am 35.4 36.7 17.6 35 11.5 SSE 7 15 4 8 1009.0 1008.9 0.0
14/11:00am 33.1 33.9 17.3 39 10.1 NNE 9 17 5 9 1009.4 1009.3 0.0
14/10:30am 32.8 33.1 17.0 38 10.1 NE 11 30 6 16 1009.8 1009.7 0.0
14/10:00am 31.7 31.4 18.3 45 8.7 NNW 17 26 9 14 1010.2 1010.1 0.0
14/09:30am 32.1 33.1 19.4 47 8.3 NNW 13 22 7 12 1010.5 1010.4 0.0
14/09:00am 30.9 32.0 19.6 51 7.4 NNW 13 20 7 11 1010.7 1010.6 0.0
14/08:30am 29.3 29.7 19.9 57 6.2 NW 17 26 9 14 1010.9 1010.8 0.0
14/08:00am 28.6 29.2 20.3 60 5.5 NNW 17 22 9 12 1011.3 1011.2 0.0
14/07:30am 27.9 28.5 20.2 63 5.0 NNW 17 22 9 12 1011.3 1011.2 0.0
14/07:00am 27.1 28.5 20.4 66 4.4 NNW 13 17 7 9 1011.3 1011.2 0.0
14/06:30am 26.5 28.4 20.6 70 3.9 N 11 15 6 8 1011.0 1010.9 0.0
14/06:00am 25.7 28.3 20.5 73 3.4 N 7 11 4 6 1010.6 1010.5 0.0
14/05:30am 25.0 28.9 20.3 75 3.1 CALM 0 0 0 0 1010.1 1010.0 0.0
14/05:00am 24.8 28.2 20.1 75 3.1 NNE 2 7 1 4 1009.6 1009.5 0.0
14/04:30am 25.0 28.7 20.0 74 3.2 CALM 0 6 0 3 1009.6 1009.5 0.0
14/04:00am 25.3 28.0 20.3 74 3.3 NNW 6 9 3 5 1009.5 1009.4 0.0
14/03:30am 25.1 27.0 20.6 76 2.9 N 11 13 6 7 1009.1 1009.0 0.0
14/03:00am 25.0 27.8 20.5 76 2.9 NNE 6 9 3 5 1009.8 1009.7 0.0
14/02:30am 25.2 27.4 20.5 75 3.1 N 9 11 5 6 1009.7 1009.6 0.0
14/02:00am 25.8 27.3 20.6 73 3.4 NNE 13 17 7 9 1009.8 1009.7 0.0
14/01:30am 25.7 27.5 20.3 72 3.5 NNE 11 15 6 8 1010.1 1010.0 0.0
14/01:00am 25.9 26.9 20.2 71 3.7 NNE 15 24 8 13 1010.0 1009.9 0.0
14/12:30am 25.9 28.1 20.5 72 3.5 ENE 9 15 5 8 1010.2 1010.1 0.0
14/12:00am 25.9 27.4 20.5 72 3.5 NNE 13 19 7 10 1010.1 1010.0 0.0
 
Date/Time
EST
Temp
°C
App
Temp
°C
Dew
Point
°C
Rel
Hum
%
Delta-T
°C
Wind Press
QNH
hPa
Press
MSL
hPa
Rain since
9am
mm
Dir  Spd
km/h
Gust
km/h
Spd
kts
Gust
kts
13/11:30pm 26.2 28.4 20.3 70 3.9 NNW 9 13 5 7 1010.0 1009.9 0.0
13/11:00pm 26.4 28.0 20.0 68 4.2 N 11 17 6 9 1010.4 1010.3 0.0
13/10:30pm 26.7 27.8 19.6 65 4.6 N 13 19 7 10 1010.4 1010.3 0.0
13/10:00pm 27.1 28.1 19.4 62 5.0 N 13 17 7 9 1010.3 1010.2 0.0
13/09:30pm 27.5 27.8 19.6 62 5.1 NNE 17 22 9 12 1010.4 1010.3 0.0
13/09:00pm 28.1 28.3 20.1 62 5.2 N 19 24 10 13 1009.6 1009.5 0.0
13/08:30pm 28.5 29.1 20.2 60 5.5 N 17 20 9 11 1009.2 1009.1 0.0
13/08:00pm 29.1 29.7 20.3 59 5.8 NNE 17 22 9 12 1008.5 1008.4 0.0
13/07:30pm 30.1 30.5 20.6 56 6.3 N 19 24 10 13 1007.4 1007.3 0.0
13/07:00pm 30.6 31.3 20.5 54 6.7 NNE 17 22 9 12 1007.0 1006.9 0.0
13/06:30pm 31.3 32.1 20.6 53 7.1 NE 17 26 9 14 1006.6 1006.5 0.0
13/06:00pm 32.1 31.8 20.4 50 7.8 NNE 22 30 12 16 1006.2 1006.1 0.0
13/05:30pm 33.2 33.1 20.7 47 8.4 NNE 22 30 12 16 1005.8 1005.7 0.0
13/05:00pm 34.2 33.8 20.2 43 9.4 NNE 22 32 12 17 1005.5 1005.4 0.0
13/04:30pm 34.9 33.2 18.9 39 10.5 NNE 26 33 14 18 1005.3 1005.2 0.0
13/04:00pm 35.6 34.3 19.1 38 10.9 NNE 24 32 13 17 1005.4 1005.3 0.0
13/03:30pm 35.9 33.6 18.5 36 11.4 NNE 28 37 15 20 1005.5 1005.4 0.0
13/03:00pm 36.8 34.2 17.9 33 12.4 NNE 28 35 15 19 1005.8 1005.7 0.0
13/02:30pm 40.0 37.3 7.4 14 18.5 W 11 22 6 12 1006.2 1006.1 0.0
13/02:00pm 39.2 37.4 7.8 15 17.9 WSW 7 13 4 7 1006.7 1006.6 0.0
13/01:30pm 38.8 38.3 13.9 22 15.5 NW 9 11 5 6 1007.1 1007.0 0.0
13/01:00pm 37.3 36.9 14.0 25 14.4 ENE 9 13 5 7 1008.0 1007.9 0.0
13/12:30pm 36.5 35.3 15.0 27 13.5 WNW 15 20 8 11 1008.6 1008.5 0.0
13/12:00pm 35.5 34.4 15.3 30 12.7 N 15 26 8 14 1008.9 1008.8 0.0
13/11:30am 35.2 35.1 17.0 34 11.7 N 13 20 7 11 1009.2 1009.1 0.0
13/11:00am 33.9 33.3 17.6 38 10.5 N 17 28 9 15 1009.7 1009.6 0.0
13/10:30am 32.8 32.7 17.0 38 10.1 N 13 20 7 11 1010.3 1010.2 0.0
13/10:00am 31.9 32.5 17.8 43 9.1 NNW 11 22 6 12 1010.7 1010.6 0.0
13/09:30am 31.0 32.0 18.7 48 8.0 NNW 11 17 6 9 1011.0 1010.9 0.0
13/09:00am 29.2 30.3 18.9 53 6.7 NNE 11 20 6 11 1011.2 1011.1 0.0
13/08:30am 28.1 29.0 19.3 58 5.7 NNW 13 20 7 11 1011.5 1011.4 0.0
13/08:00am 27.8 29.3 19.8 61 5.2 NNW 11 20 6 11 1011.5 1011.4 0.0
13/07:30am 26.9 28.7 20.3 67 4.3 NNW 11 20 6 11 1011.5 1011.4 0.0
13/07:00am 25.7 28.0 19.8 70 3.8 NNW 7 11 4 6 1011.4 1011.3 0.0
13/06:30am 24.7 27.3 20.0 75 3.0 NNW 6 9 3 5 1011.4 1011.3 0.0
13/06:00am 23.4 26.7 19.1 77 2.7 CALM 0 0 0 0 1011.0 1010.9 0.0
13/05:30am 23.0 26.3 19.0 78 2.5 CALM 0 0 0 0 1010.6 1010.5 0.0
13/05:00am 23.4 26.6 18.9 76 2.9 CALM 0 0 0 0 1010.5 1010.4 0.0
13/04:30am 23.4 26.8 19.3 78 2.6 CALM 0 0 0 0 1010.2 1010.1 0.0
13/04:00am 23.8 27.2 19.3 76 2.9 CALM 0 0 0 0 1010.2 1010.1 0.0
13/03:30am 24.0 27.0 19.3 75 3.0 N 2 7 1 4 1010.0 1009.9 0.0
13/03:00am 24.2 26.0 19.5 75 3.0 NNE 9 13 5 7 1009.9 1009.8 0.0
13/02:30am 24.4 26.3 19.7 75 3.0 NNE 9 11 5 6 1009.8 1009.7 0.0
13/02:00am 24.7 26.1 19.5 73 3.3 NNE 11 15 6 8 1009.8 1009.7 0.0
13/01:30am 24.9 26.2 19.3 71 3.6 NE 11 15 6 8 1009.9 1009.8 0.0
13/01:00am 25.1 26.0 19.2 70 3.8 NNE 13 19 7 10 1009.9 1009.8 0.0
13/12:30am 25.3 25.9 18.7 67 4.2 NNE 13 17 7 9 1010.1 1010.0 0.0
13/12:00am 25.7 26.3 18.6 65 4.5 N 13 19 7 10 1010.5 1010.4 0.0
 
Date/Time
EST
Temp
°C
App
Temp
°C
Dew
Point
°C
Rel
Hum
%
Delta-T
°C
Wind Press
QNH
hPa
Press
MSL
hPa
Rain since
9am
mm
Dir  Spd
km/h
Gust
km/h
Spd
kts
Gust
kts
12/11:30pm 25.9 26.2 17.8 61 5.1 NNE 13 19 7 10 1010.6 1010.5 0.0
12/11:00pm 26.2 26.5 17.8 60 5.3 NE 13 17 7 9 1010.6 1010.5 0.0
12/10:30pm 26.5 26.7 17.6 58 5.6 NNE 13 19 7 10 1010.6 1010.5 0.0
12/10:00pm 26.8 25.9 17.8 57 5.7 NNE 19 26 10 14 1010.6 1010.5 0.0
12/09:30pm 27.1 25.6 17.6 56 6.0 NNE 22 30 12 16 1010.6 1010.5 0.0
12/09:00pm 27.6 26.3 16.9 52 6.7 N 19 24 10 13 1011.3 1011.2 0.0
12/08:30pm 27.6 27.4 17.7 54 6.3 N 15 19 8 10 1011.4 1011.3 0.0
12/08:00pm 27.9 26.8 17.4 52 6.6 NNE 19 26 10 14 1010.1 1010.0 0.0
12/07:30pm 28.7 27.4 16.9 48 7.4 NNE 19 26 10 14 1009.4 1009.3 0.0
12/07:00pm 29.6 28.1 15.3 41 8.8 NE 17 26 9 14 1009.2 1009.1 0.0
12/06:30pm 30.5 28.4 13.7 35 10.1 NE 17 28 9 15 1008.4 1008.3 0.0
12/06:00pm 31.4 29.6 15.4 38 9.9 NE 19 30 10 16 1007.9 1007.8 0.0

Other formats

Comma delimited format used in spreadsheet applications
http://www.bom.gov.au/fwo/IDQ60801/IDQ60801.94374.axf

JavaScript Object Notation format (JSON) in row-major order
http://www.bom.gov.au/fwo/IDQ60801/IDQ60801.94374.json

Data quality

Most of these data are generated automatically and are frequently updated. Quality checks on data are not normally performed. It is possible for incorrect values to appear. Refer to information at About Latest Weather Observations and please check the disclaimer before using these data.